sensor_id;sensor_type;location;lat;lon;timestamp;P1;durP1;ratioP1;P2;durP2;ratioP2
66972;SDS011;53902;51.466;-2.586;2022-08-03T00:02:07;8.65;;;1.90;;
66972;SDS011;53902;51.466;-2.586;2022-08-03T00:04:35;10.83;;;1.97;;
66972;SDS011;53902;51.466;-2.586;2022-08-03T00:07:00;6.32;;;1.60;;
66972;SDS011;53902;51.466;-2.586;2022-08-03T00:09:25;4.37;;;1.50;;
66972;SDS011;53902;51.466;-2.586;2022-08-03T00:11:51;7.93;;;1.73;;
66972;SDS011;53902;51.466;-2.586;2022-08-03T00:14:19;5.87;;;1.70;;
66972;SDS011;53902;51.466;-2.586;2022-08-03T00:16:44;6.15;;;1.55;;
66972;SDS011;53902;51.466;-2.586;2022-08-03T00:19:10;5.93;;;1.73;;
66972;SDS011;53902;51.466;-2.586;2022-08-03T00:21:35;5.13;;;1.57;;
66972;SDS011;53902;51.466;-2.586;2022-08-03T00:24:01;8.93;;;1.70;;
66972;SDS011;53902;51.466;-2.586;2022-08-03T00:26:26;11.37;;;2.00;;
66972;SDS011;53902;51.466;-2.586;2022-08-03T00:28:55;5.40;;;1.60;;
66972;SDS011;53902;51.466;-2.586;2022-08-03T00:31:23;5.05;;;1.70;;
66972;SDS011;53902;51.466;-2.586;2022-08-03T00:33:49;8.83;;;1.77;;
66972;SDS011;53902;51.466;-2.586;2022-08-03T00:36:14;9.87;;;1.70;;
66972;SDS011;53902;51.466;-2.586;2022-08-03T00:38:39;7.60;;;1.60;;
66972;SDS011;53902;51.466;-2.586;2022-08-03T00:41:07;7.70;;;2.03;;
66972;SDS011;53902;51.466;-2.586;2022-08-03T00:43:33;9.20;;;1.50;;
66972;SDS011;53902;51.466;-2.586;2022-08-03T00:45:58;8.10;;;1.60;;
66972;SDS011;53902;51.466;-2.586;2022-08-03T00:48:27;6.78;;;1.98;;
66972;SDS011;53902;51.466;-2.586;2022-08-03T00:50:52;7.07;;;1.43;;
66972;SDS011;53902;51.466;-2.586;2022-08-03T00:53:18;5.63;;;1.50;;
66972;SDS011;53902;51.466;-2.586;2022-08-03T00:55:43;9.00;;;2.03;;
66972;SDS011;53902;51.466;-2.586;2022-08-03T00:58:09;3.77;;;1.40;;
66972;SDS011;53902;51.466;-2.586;2022-08-03T01:03:03;6.43;;;2.03;;
66972;SDS011;53902;51.466;-2.586;2022-08-03T01:19:12;6.05;;;1.83;;
66972;SDS011;53902;51.466;-2.586;2022-08-03T01:21:58;5.72;;;1.40;;
66972;SDS011;53902;51.466;-2.586;2022-08-03T01:27:14;7.15;;;1.80;;
66972;SDS011;53902;51.466;-2.586;2022-08-03T01:35:04;5.30;;;1.52;;
66972;SDS011;53902;51.466;-2.586;2022-08-03T01:37:37;11.75;;;2.25;;
66972;SDS011;53902;51.466;-2.586;2022-08-03T01:40:27;7.82;;;1.75;;
66972;SDS011;53902;51.466;-2.586;2022-08-03T01:42:54;4.82;;;1.70;;
66972;SDS011;53902;51.466;-2.586;2022-08-03T01:45:24;3.45;;;1.63;;
66972;SDS011;53902;51.466;-2.586;2022-08-03T01:47:50;10.57;;;2.00;;
66972;SDS011;53902;51.466;-2.586;2022-08-03T01:50:21;9.20;;;1.90;;
66972;SDS011;53902;51.466;-2.586;2022-08-03T01:52:48;6.63;;;1.63;;
66972;SDS011;53902;51.466;-2.586;2022-08-03T01:55:16;4.13;;;1.40;;
66972;SDS011;53902;51.466;-2.586;2022-08-03T01:57:44;6.43;;;1.75;;
66972;SDS011;53902;51.466;-2.586;2022-08-03T02:00:15;8.15;;;1.40;;
66972;SDS011;53902;51.466;-2.586;2022-08-03T02:02:41;4.93;;;1.25;;
66972;SDS011;53902;51.466;-2.586;2022-08-03T02:10:00;3.20;;;1.60;;
66972;SDS011;53902;51.466;-2.586;2022-08-03T02:12:25;6.95;;;2.15;;
66972;SDS011;53902;51.466;-2.586;2022-08-03T02:14:53;8.80;;;2.25;;
66972;SDS011;53902;51.466;-2.586;2022-08-03T02:17:20;5.40;;;3.10;;
66972;SDS011;53902;51.466;-2.586;2022-08-03T02:19:48;6.72;;;2.95;;
66972;SDS011;53902;51.466;-2.586;2022-08-03T02:22:17;7.50;;;2.90;;
66972;SDS011;53902;51.466;-2.586;2022-08-03T02:24:46;8.43;;;3.10;;
66972;SDS011;53902;51.466;-2.586;2022-08-03T02:27:18;7.10;;;3.50;;
66972;SDS011;53902;51.466;-2.586;2022-08-03T02:29:47;6.07;;;3.58;;
66972;SDS011;53902;51.466;-2.586;2022-08-03T02:32:16;9.48;;;4.00;;
66972;SDS011;53902;51.466;-2.586;2022-08-03T02:34:45;9.25;;;3.78;;
66972;SDS011;53902;51.466;-2.586;2022-08-03T02:37:11;8.40;;;4.30;;
66972;SDS011;53902;51.466;-2.586;2022-08-03T02:39:37;9.07;;;4.00;;
66972;SDS011;53902;51.466;-2.586;2022-08-03T02:42:04;4.75;;;2.90;;
66972;SDS011;53902;51.466;-2.586;2022-08-03T02:44:32;7.18;;;2.90;;
66972;SDS011;53902;51.466;-2.586;2022-08-03T02:47:02;3.97;;;2.45;;
66972;SDS011;53902;51.466;-2.586;2022-08-03T02:49:29;5.30;;;2.40;;
66972;SDS011;53902;51.466;-2.586;2022-08-03T02:51:55;6.55;;;2.10;;
66972;SDS011;53902;51.466;-2.586;2022-08-03T02:54:29;2.95;;;2.03;;
66972;SDS011;53902;51.466;-2.586;2022-08-03T02:57:01;5.95;;;2.28;;
66972;SDS011;53902;51.466;-2.586;2022-08-03T02:59:29;4.68;;;1.90;;
66972;SDS011;53902;51.466;-2.586;2022-08-03T03:01:55;4.50;;;2.00;;
66972;SDS011;53902;51.466;-2.586;2022-08-03T03:04:23;3.95;;;2.00;;
66972;SDS011;53902;51.466;-2.586;2022-08-03T03:06:50;4.72;;;2.38;;
66972;SDS011;53902;51.466;-2.586;2022-08-03T03:09:16;7.32;;;2.83;;
66972;SDS011;53902;51.466;-2.586;2022-08-03T03:11:42;8.27;;;2.80;;
66972;SDS011;53902;51.466;-2.586;2022-08-03T03:14:08;4.07;;;2.60;;
66972;SDS011;53902;51.466;-2.586;2022-08-03T03:16:37;4.88;;;2.53;;
66972;SDS011;53902;51.466;-2.586;2022-08-03T03:19:06;5.30;;;2.70;;
66972;SDS011;53902;51.466;-2.586;2022-08-03T03:21:32;5.90;;;2.90;;
66972;SDS011;53902;51.466;-2.586;2022-08-03T03:23:57;6.57;;;2.93;;
66972;SDS011;53902;51.466;-2.586;2022-08-03T03:26:23;5.75;;;3.05;;
66972;SDS011;53902;51.466;-2.586;2022-08-03T03:28:49;7.17;;;3.13;;
66972;SDS011;53902;51.466;-2.586;2022-08-03T03:31:17;4.35;;;2.67;;
66972;SDS011;53902;51.466;-2.586;2022-08-03T03:33:43;6.30;;;2.40;;
66972;SDS011;53902;51.466;-2.586;2022-08-03T03:36:08;3.83;;;2.37;;
66972;SDS011;53902;51.466;-2.586;2022-08-03T03:38:36;3.92;;;2.58;;
66972;SDS011;53902;51.466;-2.586;2022-08-03T03:41:02;3.80;;;2.17;;
66972;SDS011;53902;51.466;-2.586;2022-08-03T03:43:28;6.20;;;2.20;;
66972;SDS011;53902;51.466;-2.586;2022-08-03T03:45:57;6.50;;;2.47;;
66972;SDS011;53902;51.466;-2.586;2022-08-03T03:48:25;5.90;;;2.20;;
66972;SDS011;53902;51.466;-2.586;2022-08-03T03:50:53;3.65;;;2.20;;
66972;SDS011;53902;51.466;-2.586;2022-08-03T03:53:18;5.57;;;2.23;;
66972;SDS011;53902;51.466;-2.586;2022-08-03T03:55:44;6.43;;;2.10;;
66972;SDS011;53902;51.466;-2.586;2022-08-03T03:58:09;2.43;;;1.90;;
66972;SDS011;53902;51.466;-2.586;2022-08-03T04:00:35;3.93;;;1.70;;
66972;SDS011;53902;51.466;-2.586;2022-08-03T04:03:00;2.60;;;2.03;;
66972;SDS011;53902;51.466;-2.586;2022-08-03T04:05:28;3.17;;;2.20;;
66972;SDS011;53902;51.466;-2.586;2022-08-03T04:08:15;3.08;;;2.40;;
66972;SDS011;53902;51.466;-2.586;2022-08-03T04:13:48;3.03;;;2.10;;
66972;SDS011;53902;51.466;-2.586;2022-08-03T04:16:15;4.55;;;2.17;;
66972;SDS011;53902;51.466;-2.586;2022-08-03T04:18:43;3.08;;;2.17;;
66972;SDS011;53902;51.466;-2.586;2022-08-03T04:21:14;4.20;;;2.10;;
66972;SDS011;53902;51.466;-2.586;2022-08-03T04:23:43;3.58;;;2.10;;
66972;SDS011;53902;51.466;-2.586;2022-08-03T04:26:11;7.28;;;2.60;;
66972;SDS011;53902;51.466;-2.586;2022-08-03T04:28:40;3.10;;;2.28;;
66972;SDS011;53902;51.466;-2.586;2022-08-03T04:31:09;7.30;;;2.22;;
66972;SDS011;53902;51.466;-2.586;2022-08-03T04:33:36;2.20;;;1.57;;
66972;SDS011;53902;51.466;-2.586;2022-08-03T04:36:03;6.07;;;1.50;;
66972;SDS011;53902;51.466;-2.586;2022-08-03T04:38:40;3.85;;;1.50;;
66972;SDS011;53902;51.466;-2.586;2022-08-03T04:41:11;2.65;;;1.48;;
66972;SDS011;53902;51.466;-2.586;2022-08-03T04:43:37;3.40;;;1.57;;
66972;SDS011;53902;51.466;-2.586;2022-08-03T04:46:05;4.43;;;1.50;;
66972;SDS011;53902;51.466;-2.586;2022-08-03T04:48:33;2.87;;;1.17;;
66972;SDS011;53902;51.466;-2.586;2022-08-03T04:51:02;4.05;;;1.20;;
66972;SDS011;53902;51.466;-2.586;2022-08-03T04:53:30;2.83;;;1.02;;
66972;SDS011;53902;51.466;-2.586;2022-08-03T04:56:04;1.40;;;1.00;;
66972;SDS011;53902;51.466;-2.586;2022-08-03T04:58:30;6.97;;;1.38;;
66972;SDS011;53902;51.466;-2.586;2022-08-03T05:01:00;5.15;;;0.95;;
66972;SDS011;53902;51.466;-2.586;2022-08-03T05:03:28;2.42;;;1.00;;
66972;SDS011;53902;51.466;-2.586;2022-08-03T05:05:55;3.28;;;1.20;;
66972;SDS011;53902;51.466;-2.586;2022-08-03T05:08:21;3.00;;;1.00;;
66972;SDS011;53902;51.466;-2.586;2022-08-03T05:10:49;3.17;;;0.97;;
66972;SDS011;53902;51.466;-2.586;2022-08-03T05:13:14;1.98;;;1.40;;
66972;SDS011;53902;51.466;-2.586;2022-08-03T05:15:40;3.43;;;1.53;;
66972;SDS011;53902;51.466;-2.586;2022-08-03T05:18:06;2.83;;;1.40;;
66972;SDS011;53902;51.466;-2.586;2022-08-03T05:20:31;2.50;;;1.60;;
66972;SDS011;53902;51.466;-2.586;2022-08-03T05:22:59;3.13;;;1.70;;
66972;SDS011;53902;51.466;-2.586;2022-08-03T05:25:26;1.83;;;1.55;;
66972;SDS011;53902;51.466;-2.586;2022-08-03T05:27:54;1.90;;;1.25;;
66972;SDS011;53902;51.466;-2.586;2022-08-03T05:30:20;2.37;;;1.40;;
66972;SDS011;53902;51.466;-2.586;2022-08-03T05:32:48;3.05;;;1.67;;
66972;SDS011;53902;51.466;-2.586;2022-08-03T05:35:13;1.97;;;1.40;;
66972;SDS011;53902;51.466;-2.586;2022-08-03T05:37:38;2.73;;;1.47;;
66972;SDS011;53902;51.466;-2.586;2022-08-03T05:40:04;1.97;;;1.53;;
66972;SDS011;53902;51.466;-2.586;2022-08-03T05:42:30;4.43;;;1.40;;
66972;SDS011;53902;51.466;-2.586;2022-08-03T05:44:55;1.57;;;1.23;;
66972;SDS011;53902;51.466;-2.586;2022-08-03T05:47:21;2.10;;;1.30;;
66972;SDS011;53902;51.466;-2.586;2022-08-03T05:49:46;3.03;;;1.30;;
66972;SDS011;53902;51.466;-2.586;2022-08-03T05:52:12;2.97;;;1.20;;
66972;SDS011;53902;51.466;-2.586;2022-08-03T05:54:39;1.52;;;1.00;;
66972;SDS011;53902;51.466;-2.586;2022-08-03T05:57:05;2.63;;;1.10;;
66972;SDS011;53902;51.466;-2.586;2022-08-03T05:59:33;2.67;;;0.88;;
66972;SDS011;53902;51.466;-2.586;2022-08-03T06:01:59;3.40;;;0.90;;
66972;SDS011;53902;51.466;-2.586;2022-08-03T06:04:24;4.07;;;0.80;;
66972;SDS011;53902;51.466;-2.586;2022-08-03T06:06:57;3.83;;;0.98;;
66972;SDS011;53902;51.466;-2.586;2022-08-03T06:09:25;3.30;;;0.90;;
66972;SDS011;53902;51.466;-2.586;2022-08-03T06:11:53;4.07;;;1.00;;
66972;SDS011;53902;51.466;-2.586;2022-08-03T06:14:19;2.37;;;0.80;;
66972;SDS011;53902;51.466;-2.586;2022-08-03T06:16:47;3.30;;;0.80;;
66972;SDS011;53902;51.466;-2.586;2022-08-03T06:19:15;1.17;;;0.60;;
66972;SDS011;53902;51.466;-2.586;2022-08-03T06:21:40;2.92;;;0.70;;
66972;SDS011;53902;51.466;-2.586;2022-08-03T06:24:05;1.63;;;0.80;;
66972;SDS011;53902;51.466;-2.586;2022-08-03T06:26:31;2.10;;;1.20;;
66972;SDS011;53902;51.466;-2.586;2022-08-03T06:28:57;2.30;;;1.00;;
66972;SDS011;53902;51.466;-2.586;2022-08-03T06:31:23;2.83;;;1.00;;
66972;SDS011;53902;51.466;-2.586;2022-08-03T06:33:50;1.50;;;0.70;;
66972;SDS011;53902;51.466;-2.586;2022-08-03T06:36:18;1.02;;;0.60;;
66972;SDS011;53902;51.466;-2.586;2022-08-03T06:38:43;3.27;;;0.80;;
66972;SDS011;53902;51.466;-2.586;2022-08-03T06:41:09;4.53;;;0.80;;
66972;SDS011;53902;51.466;-2.586;2022-08-03T06:43:34;3.50;;;0.80;;
66972;SDS011;53902;51.466;-2.586;2022-08-03T06:48:27;1.30;;;0.70;;
66972;SDS011;53902;51.466;-2.586;2022-08-03T06:50:52;0.93;;;0.60;;
66972;SDS011;53902;51.466;-2.586;2022-08-03T06:53:17;3.10;;;0.70;;
66972;SDS011;53902;51.466;-2.586;2022-08-03T06:55:51;2.17;;;0.67;;
66972;SDS011;53902;51.466;-2.586;2022-08-03T07:09:21;1.13;;;0.70;;
66972;SDS011;53902;51.466;-2.586;2022-08-03T07:11:54;1.70;;;0.60;;
66972;SDS011;53902;51.466;-2.586;2022-08-03T07:14:21;4.63;;;0.90;;
66972;SDS011;53902;51.466;-2.586;2022-08-03T07:16:46;2.53;;;0.97;;
66972;SDS011;53902;51.466;-2.586;2022-08-03T07:19:12;2.37;;;0.73;;
66972;SDS011;53902;51.466;-2.586;2022-08-03T07:21:37;3.50;;;0.90;;
66972;SDS011;53902;51.466;-2.586;2022-08-03T07:24:03;2.47;;;0.73;;
66972;SDS011;53902;51.466;-2.586;2022-08-03T07:26:29;4.23;;;0.90;;
66972;SDS011;53902;51.466;-2.586;2022-08-03T07:28:54;2.50;;;0.70;;
66972;SDS011;53902;51.466;-2.586;2022-08-03T07:31:20;1.60;;;0.90;;
66972;SDS011;53902;51.466;-2.586;2022-08-03T07:33:45;1.43;;;0.80;;
66972;SDS011;53902;51.466;-2.586;2022-08-03T07:36:11;2.43;;;0.90;;
66972;SDS011;53902;51.466;-2.586;2022-08-03T07:38:38;3.88;;;0.70;;
66972;SDS011;53902;51.466;-2.586;2022-08-03T07:41:04;1.70;;;0.90;;
66972;SDS011;53902;51.466;-2.586;2022-08-03T07:43:32;1.60;;;0.70;;
66972;SDS011;53902;51.466;-2.586;2022-08-03T07:46:02;3.20;;;0.90;;
66972;SDS011;53902;51.466;-2.586;2022-08-03T07:48:30;2.80;;;1.10;;
66972;SDS011;53902;51.466;-2.586;2022-08-03T07:50:55;2.47;;;0.80;;
66972;SDS011;53902;51.466;-2.586;2022-08-03T07:53:28;2.03;;;0.83;;
66972;SDS011;53902;51.466;-2.586;2022-08-03T07:55:53;2.40;;;0.88;;
66972;SDS011;53902;51.466;-2.586;2022-08-03T07:58:21;2.40;;;1.10;;
66972;SDS011;53902;51.466;-2.586;2022-08-03T08:00:47;2.40;;;0.90;;
66972;SDS011;53902;51.466;-2.586;2022-08-03T08:03:15;5.60;;;1.38;;
66972;SDS011;53902;51.466;-2.586;2022-08-03T08:05:40;3.00;;;1.30;;
66972;SDS011;53902;51.466;-2.586;2022-08-03T08:08:16;3.10;;;1.42;;
66972;SDS011;53902;51.466;-2.586;2022-08-03T08:10:41;4.37;;;1.00;;
66972;SDS011;53902;51.466;-2.586;2022-08-03T08:13:07;1.50;;;1.03;;
66972;SDS011;53902;51.466;-2.586;2022-08-03T08:15:34;1.73;;;1.08;;
66972;SDS011;53902;51.466;-2.586;2022-08-03T08:18:00;2.10;;;0.93;;
66972;SDS011;53902;51.466;-2.586;2022-08-03T08:20:29;1.25;;;1.13;;
66972;SDS011;53902;51.466;-2.586;2022-08-03T08:23:00;4.57;;;1.15;;
66972;SDS011;53902;51.466;-2.586;2022-08-03T08:25:28;2.22;;;0.90;;
66972;SDS011;53902;51.466;-2.586;2022-08-03T08:27:55;2.35;;;0.90;;
66972;SDS011;53902;51.466;-2.586;2022-08-03T08:30:29;5.70;;;1.20;;
66972;SDS011;53902;51.466;-2.586;2022-08-03T08:32:58;1.92;;;0.90;;
66972;SDS011;53902;51.466;-2.586;2022-08-03T08:35:26;1.70;;;0.80;;
66972;SDS011;53902;51.466;-2.586;2022-08-03T08:37:51;0.80;;;0.80;;
66972;SDS011;53902;51.466;-2.586;2022-08-03T08:40:19;1.60;;;0.70;;
66972;SDS011;53902;51.466;-2.586;2022-08-03T08:42:45;0.82;;;0.70;;
66972;SDS011;53902;51.466;-2.586;2022-08-03T08:45:11;2.63;;;0.70;;
66972;SDS011;53902;51.466;-2.586;2022-08-03T08:47:39;0.70;;;0.70;;
66972;SDS011;53902;51.466;-2.586;2022-08-03T08:50:06;1.55;;;0.70;;
66972;SDS011;53902;51.466;-2.586;2022-08-03T08:52:35;1.30;;;0.77;;
66972;SDS011;53902;51.466;-2.586;2022-08-03T08:55:06;2.83;;;0.90;;
66972;SDS011;53902;51.466;-2.586;2022-08-03T08:57:36;1.30;;;0.80;;
66972;SDS011;53902;51.466;-2.586;2022-08-03T09:00:06;3.85;;;1.30;;
66972;SDS011;53902;51.466;-2.586;2022-08-03T09:02:34;2.22;;;1.25;;
66972;SDS011;53902;51.466;-2.586;2022-08-03T09:05:02;4.15;;;1.30;;
66972;SDS011;53902;51.466;-2.586;2022-08-03T09:07:28;3.17;;;1.17;;
66972;SDS011;53902;51.466;-2.586;2022-08-03T09:09:54;1.45;;;0.90;;
66972;SDS011;53902;51.466;-2.586;2022-08-03T09:12:19;1.60;;;0.93;;
66972;SDS011;53902;51.466;-2.586;2022-08-03T09:14:49;2.40;;;1.42;;
66972;SDS011;53902;51.466;-2.586;2022-08-03T09:17:17;1.52;;;1.38;;
66972;SDS011;53902;51.466;-2.586;2022-08-03T09:19:43;1.27;;;1.08;;
66972;SDS011;53902;51.466;-2.586;2022-08-03T09:22:28;1.25;;;1.10;;
66972;SDS011;53902;51.466;-2.586;2022-08-03T09:25:06;1.58;;;1.30;;
66972;SDS011;53902;51.466;-2.586;2022-08-03T09:27:42;1.40;;;1.30;;
66972;SDS011;53902;51.466;-2.586;2022-08-03T09:30:14;1.88;;;1.30;;
66972;SDS011;53902;51.466;-2.586;2022-08-03T09:32:44;1.30;;;1.20;;
66972;SDS011;53902;51.466;-2.586;2022-08-03T09:35:14;1.38;;;1.27;;
66972;SDS011;53902;51.466;-2.586;2022-08-03T09:37:39;1.48;;;1.38;;
66972;SDS011;53902;51.466;-2.586;2022-08-03T09:40:05;1.70;;;1.30;;
66972;SDS011;53902;51.466;-2.586;2022-08-03T09:42:31;2.45;;;1.58;;
66972;SDS011;53902;51.466;-2.586;2022-08-03T09:45:02;2.47;;;1.90;;
66972;SDS011;53902;51.466;-2.586;2022-08-03T09:47:32;1.85;;;1.75;;
66972;SDS011;53902;51.466;-2.586;2022-08-03T09:50:06;3.05;;;2.10;;
66972;SDS011;53902;51.466;-2.586;2022-08-03T09:55:11;2.28;;;1.98;;
66972;SDS011;53902;51.466;-2.586;2022-08-03T09:57:41;2.13;;;1.90;;
66972;SDS011;53902;51.466;-2.586;2022-08-03T10:00:11;3.28;;;2.50;;
66972;SDS011;53902;51.466;-2.586;2022-08-03T10:02:51;2.08;;;1.70;;
66972;SDS011;53902;51.466;-2.586;2022-08-03T10:05:31;2.13;;;1.50;;
66972;SDS011;53902;51.466;-2.586;2022-08-03T10:08:12;1.75;;;1.52;;
66972;SDS011;53902;51.466;-2.586;2022-08-03T10:11:02;1.80;;;1.38;;
66972;SDS011;53902;51.466;-2.586;2022-08-03T10:13:27;4.17;;;1.60;;
66972;SDS011;53902;51.466;-2.586;2022-08-03T10:15:53;1.90;;;1.43;;
66972;SDS011;53902;51.466;-2.586;2022-08-03T10:18:26;5.20;;;1.77;;
66972;SDS011;53902;51.466;-2.586;2022-08-03T10:20:58;5.38;;;1.95;;
66972;SDS011;53902;51.466;-2.586;2022-08-03T10:23:28;2.95;;;1.63;;
66972;SDS011;53902;51.466;-2.586;2022-08-03T10:26:00;7.60;;;2.53;;
66972;SDS011;53902;51.466;-2.586;2022-08-03T10:28:26;7.07;;;2.20;;
66972;SDS011;53902;51.466;-2.586;2022-08-03T10:30:59;4.93;;;2.17;;
66972;SDS011;53902;51.466;-2.586;2022-08-03T10:33:26;6.35;;;3.20;;
66972;SDS011;53902;51.466;-2.586;2022-08-03T10:35:53;4.32;;;1.83;;
66972;SDS011;53902;51.466;-2.586;2022-08-03T10:38:25;5.97;;;2.00;;
66972;SDS011;53902;51.466;-2.586;2022-08-03T10:40:57;5.18;;;1.73;;
66972;SDS011;53902;51.466;-2.586;2022-08-03T10:43:27;5.20;;;1.88;;
66972;SDS011;53902;51.466;-2.586;2022-08-03T10:46:02;3.83;;;1.50;;
66972;SDS011;53902;51.466;-2.586;2022-08-03T10:48:37;4.32;;;2.00;;
66972;SDS011;53902;51.466;-2.586;2022-08-03T10:51:03;6.43;;;1.77;;
66972;SDS011;53902;51.466;-2.586;2022-08-03T10:53:35;6.30;;;2.17;;
66972;SDS011;53902;51.466;-2.586;2022-08-03T10:56:02;6.18;;;1.90;;
66972;SDS011;53902;51.466;-2.586;2022-08-03T10:58:47;4.35;;;1.88;;
66972;SDS011;53902;51.466;-2.586;2022-08-03T11:01:19;6.53;;;2.13;;
66972;SDS011;53902;51.466;-2.586;2022-08-03T11:04:21;5.28;;;1.83;;
66972;SDS011;53902;51.466;-2.586;2022-08-03T11:06:54;6.20;;;1.80;;
66972;SDS011;53902;51.466;-2.586;2022-08-03T11:09:40;8.60;;;1.90;;
66972;SDS011;53902;51.466;-2.586;2022-08-03T11:12:27;8.07;;;1.83;;
66972;SDS011;53902;51.466;-2.586;2022-08-03T11:14:59;6.43;;;1.98;;
66972;SDS011;53902;51.466;-2.586;2022-08-03T11:17:45;6.70;;;1.80;;
66972;SDS011;53902;51.466;-2.586;2022-08-03T11:23:08;4.20;;;1.67;;
66972;SDS011;53902;51.466;-2.586;2022-08-03T11:28:35;7.30;;;1.80;;
66972;SDS011;53902;51.466;-2.586;2022-08-03T11:34:07;6.03;;;1.92;;
66972;SDS011;53902;51.466;-2.586;2022-08-03T11:39:44;5.47;;;1.60;;
66972;SDS011;53902;51.466;-2.586;2022-08-03T11:42:58;4.63;;;2.03;;
66972;SDS011;53902;51.466;-2.586;2022-08-03T11:45:01;8.68;;;2.22;;
66972;SDS011;53902;51.466;-2.586;2022-08-03T11:47:35;6.80;;;1.67;;
66972;SDS011;53902;51.466;-2.586;2022-08-03T11:50:01;4.05;;;2.00;;
66972;SDS011;53902;51.466;-2.586;2022-08-03T11:52:26;4.97;;;2.40;;
66972;SDS011;53902;51.466;-2.586;2022-08-03T11:54:58;7.65;;;2.33;;
66972;SDS011;53902;51.466;-2.586;2022-08-03T11:57:27;10.03;;;2.87;;
66972;SDS011;53902;51.466;-2.586;2022-08-03T11:59:54;6.03;;;1.95;;
66972;SDS011;53902;51.466;-2.586;2022-08-03T12:02:19;5.13;;;1.90;;
66972;SDS011;53902;51.466;-2.586;2022-08-03T12:07:27;8.20;;;2.10;;
66972;SDS011;53902;51.466;-2.586;2022-08-03T12:10:09;10.30;;;2.15;;
66972;SDS011;53902;51.466;-2.586;2022-08-03T12:12:34;7.32;;;1.90;;
66972;SDS011;53902;51.466;-2.586;2022-08-03T12:15:03;5.80;;;1.93;;
66972;SDS011;53902;51.466;-2.586;2022-08-03T12:17:33;5.20;;;2.20;;
66972;SDS011;53902;51.466;-2.586;2022-08-03T12:19:59;8.48;;;2.28;;
66972;SDS011;53902;51.466;-2.586;2022-08-03T12:22:32;6.30;;;1.70;;
66972;SDS011;53902;51.466;-2.586;2022-08-03T12:25:02;8.75;;;2.03;;
66972;SDS011;53902;51.466;-2.586;2022-08-03T12:27:29;5.18;;;1.75;;
66972;SDS011;53902;51.466;-2.586;2022-08-03T12:29:57;6.67;;;1.50;;
66972;SDS011;53902;51.466;-2.586;2022-08-03T12:32:27;6.00;;;1.77;;
66972;SDS011;53902;51.466;-2.586;2022-08-03T12:34:56;9.55;;;2.42;;
66972;SDS011;53902;51.466;-2.586;2022-08-03T12:37:28;6.75;;;1.92;;
66972;SDS011;53902;51.466;-2.586;2022-08-03T12:39:56;6.82;;;2.03;;
66972;SDS011;53902;51.466;-2.586;2022-08-03T12:42:33;8.93;;;1.80;;
66972;SDS011;53902;51.466;-2.586;2022-08-03T12:44:59;7.13;;;1.50;;
66972;SDS011;53902;51.466;-2.586;2022-08-03T12:47:53;8.85;;;2.00;;
66972;SDS011;53902;51.466;-2.586;2022-08-03T12:50:29;8.32;;;1.67;;
66972;SDS011;53902;51.466;-2.586;2022-08-03T12:52:57;3.22;;;1.52;;
66972;SDS011;53902;51.466;-2.586;2022-08-03T12:55:25;5.93;;;1.70;;
66972;SDS011;53902;51.466;-2.586;2022-08-03T12:57:58;4.35;;;1.65;;
66972;SDS011;53902;51.466;-2.586;2022-08-03T13:00:26;8.60;;;2.00;;
66972;SDS011;53902;51.466;-2.586;2022-08-03T13:03:07;9.50;;;2.10;;
66972;SDS011;53902;51.466;-2.586;2022-08-03T13:05:44;7.20;;;1.92;;
66972;SDS011;53902;51.466;-2.586;2022-08-03T13:08:22;5.47;;;1.52;;
66972;SDS011;53902;51.466;-2.586;2022-08-03T13:10:48;6.50;;;1.90;;
66972;SDS011;53902;51.466;-2.586;2022-08-03T13:13:16;3.17;;;1.55;;
66972;SDS011;53902;51.466;-2.586;2022-08-03T13:15:47;7.15;;;1.60;;
66972;SDS011;53902;51.466;-2.586;2022-08-03T13:18:12;10.50;;;1.90;;
66972;SDS011;53902;51.466;-2.586;2022-08-03T13:20:38;6.97;;;1.83;;
66972;SDS011;53902;51.466;-2.586;2022-08-03T13:23:05;6.72;;;1.70;;
66972;SDS011;53902;51.466;-2.586;2022-08-03T13:25:33;6.03;;;1.37;;
66972;SDS011;53902;51.466;-2.586;2022-08-03T13:27:58;4.60;;;1.40;;
66972;SDS011;53902;51.466;-2.586;2022-08-03T13:30:24;5.53;;;1.57;;
66972;SDS011;53902;51.466;-2.586;2022-08-03T13:32:49;9.07;;;1.73;;
66972;SDS011;53902;51.466;-2.586;2022-08-03T13:35:15;8.00;;;1.90;;
66972;SDS011;53902;51.466;-2.586;2022-08-03T13:37:40;2.63;;;1.23;;
66972;SDS011;53902;51.466;-2.586;2022-08-03T13:40:06;4.77;;;1.47;;
66972;SDS011;53902;51.466;-2.586;2022-08-03T13:42:33;5.38;;;1.40;;
66972;SDS011;53902;51.466;-2.586;2022-08-03T13:44:59;5.47;;;1.42;;
66972;SDS011;53902;51.466;-2.586;2022-08-03T13:47:26;4.95;;;1.45;;
66972;SDS011;53902;51.466;-2.586;2022-08-03T13:49:52;5.75;;;1.65;;
66972;SDS011;53902;51.466;-2.586;2022-08-03T13:52:26;6.72;;;1.80;;
66972;SDS011;53902;51.466;-2.586;2022-08-03T13:54:52;5.15;;;1.30;;
66972;SDS011;53902;51.466;-2.586;2022-08-03T13:57:20;6.23;;;1.30;;
66972;SDS011;53902;51.466;-2.586;2022-08-03T13:59:45;6.30;;;1.33;;
66972;SDS011;53902;51.466;-2.586;2022-08-03T14:02:13;6.20;;;1.60;;
66972;SDS011;53902;51.466;-2.586;2022-08-03T14:04:56;8.35;;;1.70;;
66972;SDS011;53902;51.466;-2.586;2022-08-03T14:15:47;3.55;;;1.17;;
66972;SDS011;53902;51.466;-2.586;2022-08-03T14:24:12;7.65;;;1.42;;
66972;SDS011;53902;51.466;-2.586;2022-08-03T14:26:44;4.77;;;1.37;;
66972;SDS011;53902;51.466;-2.586;2022-08-03T14:29:30;5.53;;;1.40;;
66972;SDS011;53902;51.466;-2.586;2022-08-03T14:31:55;2.73;;;1.10;;
66972;SDS011;53902;51.466;-2.586;2022-08-03T14:34:21;5.23;;;1.40;;
66972;SDS011;53902;51.466;-2.586;2022-08-03T14:36:46;3.93;;;1.57;;
66972;SDS011;53902;51.466;-2.586;2022-08-03T14:39:12;3.73;;;1.20;;
66972;SDS011;53902;51.466;-2.586;2022-08-03T14:41:41;6.47;;;1.40;;
66972;SDS011;53902;51.466;-2.586;2022-08-03T14:44:06;3.53;;;1.13;;
66972;SDS011;53902;51.466;-2.586;2022-08-03T14:46:32;2.77;;;1.30;;
66972;SDS011;53902;51.466;-2.586;2022-08-03T14:48:57;5.27;;;1.30;;
66972;SDS011;53902;51.466;-2.586;2022-08-03T14:51:23;4.95;;;1.50;;
66972;SDS011;53902;51.466;-2.586;2022-08-03T14:53:48;3.07;;;1.20;;
66972;SDS011;53902;51.466;-2.586;2022-08-03T14:56:14;1.80;;;1.00;;
66972;SDS011;53902;51.466;-2.586;2022-08-03T14:58:42;5.20;;;1.42;;
66972;SDS011;53902;51.466;-2.586;2022-08-03T15:01:07;6.10;;;1.67;;
66972;SDS011;53902;51.466;-2.586;2022-08-03T15:17:05;4.40;;;1.50;;
66972;SDS011;53902;51.466;-2.586;2022-08-03T15:22:51;5.35;;;1.40;;
66972;SDS011;53902;51.466;-2.586;2022-08-03T15:37:28;4.35;;;1.35;;
66972;SDS011;53902;51.466;-2.586;2022-08-03T16:03:13;3.97;;;1.40;;
66972;SDS011;53902;51.466;-2.586;2022-08-03T16:05:39;4.50;;;1.20;;
66972;SDS011;53902;51.466;-2.586;2022-08-03T16:08:04;3.93;;;1.23;;
66972;SDS011;53902;51.466;-2.586;2022-08-03T16:10:30;4.63;;;1.40;;
66972;SDS011;53902;51.466;-2.586;2022-08-03T16:12:56;6.20;;;1.40;;
66972;SDS011;53902;51.466;-2.586;2022-08-03T16:15:22;4.72;;;1.52;;
66972;SDS011;53902;51.466;-2.586;2022-08-03T16:17:48;4.50;;;1.70;;
66972;SDS011;53902;51.466;-2.586;2022-08-03T16:20:13;3.87;;;1.73;;
66972;SDS011;53902;51.466;-2.586;2022-08-03T16:22:42;3.87;;;1.23;;
66972;SDS011;53902;51.466;-2.586;2022-08-03T16:25:08;4.63;;;1.70;;
66972;SDS011;53902;51.466;-2.586;2022-08-03T16:27:34;5.38;;;1.80;;
66972;SDS011;53902;51.466;-2.586;2022-08-03T16:30:00;4.83;;;1.90;;
66972;SDS011;53902;51.466;-2.586;2022-08-03T16:32:25;3.90;;;1.50;;
66972;SDS011;53902;51.466;-2.586;2022-08-03T16:34:51;3.00;;;1.60;;
66972;SDS011;53902;51.466;-2.586;2022-08-03T16:37:16;4.10;;;1.57;;
66972;SDS011;53902;51.466;-2.586;2022-08-03T16:39:41;4.97;;;1.80;;
66972;SDS011;53902;51.466;-2.586;2022-08-03T16:42:07;2.00;;;1.27;;
66972;SDS011;53902;51.466;-2.586;2022-08-03T16:44:32;4.13;;;1.40;;
66972;SDS011;53902;51.466;-2.586;2022-08-03T16:46:58;6.20;;;1.47;;
66972;SDS011;53902;51.466;-2.586;2022-08-03T16:49:23;4.73;;;1.53;;
66972;SDS011;53902;51.466;-2.586;2022-08-03T16:51:51;5.33;;;1.53;;